sensor_id;sensor_type;location;lat;lon;timestamp;P1;durP1;ratioP1;P2;durP2;ratioP2
33190;SDS011;19554;42.652;23.364;2023-12-14T00:00:18;39.80;;;19.27;;
33190;SDS011;19554;42.652;23.364;2023-12-14T00:02:44;33.13;;;18.55;;
33190;SDS011;19554;42.652;23.364;2023-12-14T00:05:10;30.45;;;17.83;;
33190;SDS011;19554;42.652;23.364;2023-12-14T00:07:35;34.55;;;19.90;;
33190;SDS011;19554;42.652;23.364;2023-12-14T00:10:01;38.60;;;20.45;;
33190;SDS011;19554;42.652;23.364;2023-12-14T00:12:28;39.67;;;20.10;;
33190;SDS011;19554;42.652;23.364;2023-12-14T00:14:53;43.75;;;22.05;;
33190;SDS011;19554;42.652;23.364;2023-12-14T00:17:19;42.70;;;22.77;;
33190;SDS011;19554;42.652;23.364;2023-12-14T00:19:44;43.55;;;23.75;;
33190;SDS011;19554;42.652;23.364;2023-12-14T00:22:10;43.00;;;22.70;;
33190;SDS011;19554;42.652;23.364;2023-12-14T00:24:36;35.97;;;21.02;;
33190;SDS011;19554;42.652;23.364;2023-12-14T00:27:01;39.17;;;20.95;;
33190;SDS011;19554;42.652;23.364;2023-12-14T00:29:26;35.63;;;19.77;;
33190;SDS011;19554;42.652;23.364;2023-12-14T00:31:52;37.75;;;21.25;;
33190;SDS011;19554;42.652;23.364;2023-12-14T00:34:17;39.22;;;20.48;;
33190;SDS011;19554;42.652;23.364;2023-12-14T00:36:43;37.35;;;20.45;;
33190;SDS011;19554;42.652;23.364;2023-12-14T00:39:08;40.92;;;20.13;;
33190;SDS011;19554;42.652;23.364;2023-12-14T00:41:34;33.03;;;18.40;;
33190;SDS011;19554;42.652;23.364;2023-12-14T00:43:59;35.05;;;17.55;;
33190;SDS011;19554;42.652;23.364;2023-12-14T00:46:25;35.25;;;18.08;;
33190;SDS011;19554;42.652;23.364;2023-12-14T00:48:50;46.58;;;20.15;;
33190;SDS011;19554;42.652;23.364;2023-12-14T00:51:16;35.25;;;18.25;;
33190;SDS011;19554;42.652;23.364;2023-12-14T00:53:42;34.70;;;18.27;;
33190;SDS011;19554;42.652;23.364;2023-12-14T00:56:08;38.88;;;21.33;;
33190;SDS011;19554;42.652;23.364;2023-12-14T00:58:33;34.20;;;18.25;;
33190;SDS011;19554;42.652;23.364;2023-12-14T01:00:59;32.67;;;18.45;;
33190;SDS011;19554;42.652;23.364;2023-12-14T01:03:24;32.72;;;18.20;;
33190;SDS011;19554;42.652;23.364;2023-12-14T01:05:50;32.85;;;17.63;;
33190;SDS011;19554;42.652;23.364;2023-12-14T01:08:15;35.20;;;20.42;;
33190;SDS011;19554;42.652;23.364;2023-12-14T01:10:41;32.58;;;18.58;;
33190;SDS011;19554;42.652;23.364;2023-12-14T01:13:06;38.17;;;19.50;;
33190;SDS011;19554;42.652;23.364;2023-12-14T01:15:33;34.63;;;18.52;;
33190;SDS011;19554;42.652;23.364;2023-12-14T01:17:58;36.55;;;20.40;;
33190;SDS011;19554;42.652;23.364;2023-12-14T01:20:24;30.60;;;18.92;;
33190;SDS011;19554;42.652;23.364;2023-12-14T01:22:49;34.75;;;20.15;;
33190;SDS011;19554;42.652;23.364;2023-12-14T01:25:15;34.60;;;19.75;;
33190;SDS011;19554;42.652;23.364;2023-12-14T01:27:40;32.92;;;19.27;;
33190;SDS011;19554;42.652;23.364;2023-12-14T01:30:06;29.08;;;17.58;;
33190;SDS011;19554;42.652;23.364;2023-12-14T01:32:32;26.35;;;17.00;;
33190;SDS011;19554;42.652;23.364;2023-12-14T01:34:58;31.52;;;18.23;;
33190;SDS011;19554;42.652;23.364;2023-12-14T01:37:23;28.30;;;16.52;;
33190;SDS011;19554;42.652;23.364;2023-12-14T01:39:49;39.00;;;20.00;;
33190;SDS011;19554;42.652;23.364;2023-12-14T01:42:14;29.23;;;17.85;;
33190;SDS011;19554;42.652;23.364;2023-12-14T01:44:40;29.27;;;17.88;;
33190;SDS011;19554;42.652;23.364;2023-12-14T01:47:05;32.97;;;18.17;;
33190;SDS011;19554;42.652;23.364;2023-12-14T01:49:31;29.88;;;17.63;;
33190;SDS011;19554;42.652;23.364;2023-12-14T01:51:56;31.15;;;18.38;;
33190;SDS011;19554;42.652;23.364;2023-12-14T01:54:22;32.00;;;17.70;;
33190;SDS011;19554;42.652;23.364;2023-12-14T01:56:47;34.88;;;19.35;;
33190;SDS011;19554;42.652;23.364;2023-12-14T01:59:13;32.63;;;17.77;;
33190;SDS011;19554;42.652;23.364;2023-12-14T02:01:42;25.75;;;16.60;;
33190;SDS011;19554;42.652;23.364;2023-12-14T02:04:09;30.25;;;16.50;;
33190;SDS011;19554;42.652;23.364;2023-12-14T02:06:35;29.20;;;16.73;;
33190;SDS011;19554;42.652;23.364;2023-12-14T02:09:01;29.20;;;16.73;;
33190;SDS011;19554;42.652;23.364;2023-12-14T02:11:27;26.38;;;15.88;;
33190;SDS011;19554;42.652;23.364;2023-12-14T02:13:53;29.30;;;16.13;;
33190;SDS011;19554;42.652;23.364;2023-12-14T02:16:18;26.38;;;16.40;;
33190;SDS011;19554;42.652;23.364;2023-12-14T02:18:44;27.92;;;16.30;;
33190;SDS011;19554;42.652;23.364;2023-12-14T02:21:10;24.25;;;15.13;;
33190;SDS011;19554;42.652;23.364;2023-12-14T02:23:35;29.42;;;16.45;;
33190;SDS011;19554;42.652;23.364;2023-12-14T02:26:07;23.67;;;15.10;;
33190;SDS011;19554;42.652;23.364;2023-12-14T02:28:32;26.80;;;16.35;;
33190;SDS011;19554;42.652;23.364;2023-12-14T02:30:58;27.70;;;15.98;;
33190;SDS011;19554;42.652;23.364;2023-12-14T02:33:23;28.92;;;15.90;;
33190;SDS011;19554;42.652;23.364;2023-12-14T02:35:48;26.20;;;14.93;;
33190;SDS011;19554;42.652;23.364;2023-12-14T02:38:14;25.08;;;15.40;;
33190;SDS011;19554;42.652;23.364;2023-12-14T02:40:39;29.27;;;16.23;;
33190;SDS011;19554;42.652;23.364;2023-12-14T02:43:05;28.42;;;16.77;;
33190;SDS011;19554;42.652;23.364;2023-12-14T02:45:30;28.38;;;15.77;;
33190;SDS011;19554;42.652;23.364;2023-12-14T02:47:56;27.10;;;15.85;;
33190;SDS011;19554;42.652;23.364;2023-12-14T02:50:21;25.92;;;15.90;;
33190;SDS011;19554;42.652;23.364;2023-12-14T02:52:47;27.35;;;15.65;;
33190;SDS011;19554;42.652;23.364;2023-12-14T02:55:12;31.40;;;16.00;;
33190;SDS011;19554;42.652;23.364;2023-12-14T02:57:38;31.27;;;15.15;;
33190;SDS011;19554;42.652;23.364;2023-12-14T03:00:04;24.90;;;15.45;;
33190;SDS011;19554;42.652;23.364;2023-12-14T03:02:30;26.20;;;16.08;;
33190;SDS011;19554;42.652;23.364;2023-12-14T03:04:55;24.60;;;14.88;;
33190;SDS011;19554;42.652;23.364;2023-12-14T03:07:21;25.00;;;13.15;;
33190;SDS011;19554;42.652;23.364;2023-12-14T03:09:46;23.65;;;14.27;;
33190;SDS011;19554;42.652;23.364;2023-12-14T03:12:12;25.83;;;14.82;;
33190;SDS011;19554;42.652;23.364;2023-12-14T03:14:37;28.85;;;14.13;;
33190;SDS011;19554;42.652;23.364;2023-12-14T03:17:03;22.02;;;13.35;;
33190;SDS011;19554;42.652;23.364;2023-12-14T03:19:28;26.25;;;14.23;;
33190;SDS011;19554;42.652;23.364;2023-12-14T03:21:54;25.73;;;12.38;;
33190;SDS011;19554;42.652;23.364;2023-12-14T03:24:20;19.55;;;12.27;;
33190;SDS011;19554;42.652;23.364;2023-12-14T03:26:46;22.92;;;12.38;;
33190;SDS011;19554;42.652;23.364;2023-12-14T03:29:11;20.38;;;12.07;;
33190;SDS011;19554;42.652;23.364;2023-12-14T03:31:36;20.98;;;11.85;;
33190;SDS011;19554;42.652;23.364;2023-12-14T03:34:02;21.13;;;10.82;;
33190;SDS011;19554;42.652;23.364;2023-12-14T03:36:28;15.98;;;10.13;;
33190;SDS011;19554;42.652;23.364;2023-12-14T03:38:53;17.73;;;10.45;;
33190;SDS011;19554;42.652;23.364;2023-12-14T03:41:19;18.17;;;10.98;;
33190;SDS011;19554;42.652;23.364;2023-12-14T03:43:45;16.50;;;10.05;;
33190;SDS011;19554;42.652;23.364;2023-12-14T03:46:10;18.83;;;10.10;;
33190;SDS011;19554;42.652;23.364;2023-12-14T03:48:36;18.27;;;10.50;;
33190;SDS011;19554;42.652;23.364;2023-12-14T03:51:04;15.07;;;9.90;;
33190;SDS011;19554;42.652;23.364;2023-12-14T03:53:30;16.15;;;10.75;;
33190;SDS011;19554;42.652;23.364;2023-12-14T03:55:59;17.90;;;10.63;;
33190;SDS011;19554;42.652;23.364;2023-12-14T03:58:25;17.38;;;10.05;;
33190;SDS011;19554;42.652;23.364;2023-12-14T04:00:51;17.83;;;11.23;;
33190;SDS011;19554;42.652;23.364;2023-12-14T04:03:17;15.60;;;10.02;;
33190;SDS011;19554;42.652;23.364;2023-12-14T04:05:43;16.27;;;10.63;;
33190;SDS011;19554;42.652;23.364;2023-12-14T04:08:09;16.95;;;10.80;;
33190;SDS011;19554;42.652;23.364;2023-12-14T04:10:35;15.63;;;10.02;;
33190;SDS011;19554;42.652;23.364;2023-12-14T04:13:00;17.67;;;10.50;;
33190;SDS011;19554;42.652;23.364;2023-12-14T04:15:26;15.80;;;9.95;;
33190;SDS011;19554;42.652;23.364;2023-12-14T04:17:51;17.42;;;10.43;;
33190;SDS011;19554;42.652;23.364;2023-12-14T04:20:17;24.23;;;11.68;;
33190;SDS011;19554;42.652;23.364;2023-12-14T04:22:43;18.50;;;11.07;;
33190;SDS011;19554;42.652;23.364;2023-12-14T04:25:09;19.55;;;11.73;;
33190;SDS011;19554;42.652;23.364;2023-12-14T04:27:35;22.00;;;13.75;;
33190;SDS011;19554;42.652;23.364;2023-12-14T04:30:00;20.92;;;12.60;;
33190;SDS011;19554;42.652;23.364;2023-12-14T04:32:26;24.13;;;13.25;;
33190;SDS011;19554;42.652;23.364;2023-12-14T04:34:52;28.27;;;15.02;;
33190;SDS011;19554;42.652;23.364;2023-12-14T04:37:17;20.52;;;12.60;;
33190;SDS011;19554;42.652;23.364;2023-12-14T04:39:43;18.50;;;11.85;;
33190;SDS011;19554;42.652;23.364;2023-12-14T04:42:08;20.42;;;11.20;;
33190;SDS011;19554;42.652;23.364;2023-12-14T04:44:34;25.65;;;15.25;;
33190;SDS011;19554;42.652;23.364;2023-12-14T04:46:59;24.30;;;15.10;;
33190;SDS011;19554;42.652;23.364;2023-12-14T04:49:24;27.73;;;15.57;;
33190;SDS011;19554;42.652;23.364;2023-12-14T04:51:50;25.55;;;14.35;;
33190;SDS011;19554;42.652;23.364;2023-12-14T04:54:15;29.88;;;16.25;;
33190;SDS011;19554;42.652;23.364;2023-12-14T04:56:41;20.45;;;12.15;;
33190;SDS011;19554;42.652;23.364;2023-12-14T04:59:09;22.23;;;14.10;;
33190;SDS011;19554;42.652;23.364;2023-12-14T05:01:35;24.13;;;14.73;;
33190;SDS011;19554;42.652;23.364;2023-12-14T05:04:00;21.45;;;13.05;;
33190;SDS011;19554;42.652;23.364;2023-12-14T05:06:26;20.60;;;10.60;;
33190;SDS011;19554;42.652;23.364;2023-12-14T05:08:51;19.98;;;9.50;;
33190;SDS011;19554;42.652;23.364;2023-12-14T05:11:16;18.42;;;11.85;;
33190;SDS011;19554;42.652;23.364;2023-12-14T05:13:42;18.17;;;11.07;;
33190;SDS011;19554;42.652;23.364;2023-12-14T05:16:12;15.52;;;9.73;;
33190;SDS011;19554;42.652;23.364;2023-12-14T05:18:38;21.25;;;11.45;;
33190;SDS011;19554;42.652;23.364;2023-12-14T05:21:04;19.33;;;9.70;;
33190;SDS011;19554;42.652;23.364;2023-12-14T05:23:30;21.63;;;14.48;;
33190;SDS011;19554;42.652;23.364;2023-12-14T05:25:55;20.40;;;13.85;;
33190;SDS011;19554;42.652;23.364;2023-12-14T05:28:21;18.95;;;12.95;;
33190;SDS011;19554;42.652;23.364;2023-12-14T05:30:46;21.48;;;12.82;;
33190;SDS011;19554;42.652;23.364;2023-12-14T05:33:12;21.85;;;13.02;;
33190;SDS011;19554;42.652;23.364;2023-12-14T05:35:37;21.27;;;11.40;;
33190;SDS011;19554;42.652;23.364;2023-12-14T05:38:03;24.90;;;13.20;;
33190;SDS011;19554;42.652;23.364;2023-12-14T05:40:28;27.38;;;13.48;;
33190;SDS011;19554;42.652;23.364;2023-12-14T05:42:54;22.40;;;11.90;;
33190;SDS011;19554;42.652;23.364;2023-12-14T05:45:19;18.02;;;11.75;;
33190;SDS011;19554;42.652;23.364;2023-12-14T05:47:45;21.73;;;13.13;;
33190;SDS011;19554;42.652;23.364;2023-12-14T05:50:11;18.02;;;11.25;;
33190;SDS011;19554;42.652;23.364;2023-12-14T05:52:37;21.13;;;12.30;;
33190;SDS011;19554;42.652;23.364;2023-12-14T05:55:03;18.02;;;11.98;;
33190;SDS011;19554;42.652;23.364;2023-12-14T05:57:29;22.98;;;13.10;;
33190;SDS011;19554;42.652;23.364;2023-12-14T05:59:55;19.17;;;12.70;;
33190;SDS011;19554;42.652;23.364;2023-12-14T06:02:21;22.88;;;12.85;;
33190;SDS011;19554;42.652;23.364;2023-12-14T06:04:47;22.55;;;12.57;;
33190;SDS011;19554;42.652;23.364;2023-12-14T06:07:14;23.48;;;12.93;;
33190;SDS011;19554;42.652;23.364;2023-12-14T06:09:40;25.40;;;13.70;;
33190;SDS011;19554;42.652;23.364;2023-12-14T06:12:06;32.58;;;14.00;;
33190;SDS011;19554;42.652;23.364;2023-12-14T06:14:31;38.88;;;16.88;;
33190;SDS011;19554;42.652;23.364;2023-12-14T06:16:57;28.95;;;15.48;;
33190;SDS011;19554;42.652;23.364;2023-12-14T06:19:23;35.30;;;16.17;;
33190;SDS011;19554;42.652;23.364;2023-12-14T06:21:48;23.20;;;13.90;;
33190;SDS011;19554;42.652;23.364;2023-12-14T06:24:14;32.15;;;17.23;;
33190;SDS011;19554;42.652;23.364;2023-12-14T06:26:48;32.00;;;16.33;;
33190;SDS011;19554;42.652;23.364;2023-12-14T06:29:14;31.70;;;15.52;;
33190;SDS011;19554;42.652;23.364;2023-12-14T06:31:39;32.17;;;15.80;;
33190;SDS011;19554;42.652;23.364;2023-12-14T06:34:05;22.38;;;13.45;;
33190;SDS011;19554;42.652;23.364;2023-12-14T06:36:31;25.80;;;15.20;;
33190;SDS011;19554;42.652;23.364;2023-12-14T06:38:58;23.80;;;14.60;;
33190;SDS011;19554;42.652;23.364;2023-12-14T06:41:24;24.45;;;14.30;;
33190;SDS011;19554;42.652;23.364;2023-12-14T06:43:51;21.33;;;13.48;;
33190;SDS011;19554;42.652;23.364;2023-12-14T06:46:17;19.67;;;12.73;;
33190;SDS011;19554;42.652;23.364;2023-12-14T06:48:43;24.52;;;14.10;;
33190;SDS011;19554;42.652;23.364;2023-12-14T06:51:08;21.20;;;12.77;;
33190;SDS011;19554;42.652;23.364;2023-12-14T06:53:34;26.50;;;13.93;;
33190;SDS011;19554;42.652;23.364;2023-12-14T06:56:00;22.50;;;13.63;;
33190;SDS011;19554;42.652;23.364;2023-12-14T06:58:26;32.97;;;14.50;;
33190;SDS011;19554;42.652;23.364;2023-12-14T07:00:51;25.08;;;13.95;;
33190;SDS011;19554;42.652;23.364;2023-12-14T07:03:17;24.90;;;14.70;;
33190;SDS011;19554;42.652;23.364;2023-12-14T07:05:42;27.08;;;15.05;;
33190;SDS011;19554;42.652;23.364;2023-12-14T07:08:07;22.48;;;13.35;;
33190;SDS011;19554;42.652;23.364;2023-12-14T07:10:33;25.70;;;14.43;;
33190;SDS011;19554;42.652;23.364;2023-12-14T07:12:59;27.48;;;14.52;;
33190;SDS011;19554;42.652;23.364;2023-12-14T07:15:24;24.60;;;13.70;;
33190;SDS011;19554;42.652;23.364;2023-12-14T07:17:50;22.63;;;12.05;;
33190;SDS011;19554;42.652;23.364;2023-12-14T07:20:15;24.25;;;13.23;;
33190;SDS011;19554;42.652;23.364;2023-12-14T07:22:41;21.50;;;13.57;;
33190;SDS011;19554;42.652;23.364;2023-12-14T07:25:07;28.00;;;14.82;;
33190;SDS011;19554;42.652;23.364;2023-12-14T07:27:33;27.75;;;13.82;;
33190;SDS011;19554;42.652;23.364;2023-12-14T07:29:59;27.13;;;14.27;;
33190;SDS011;19554;42.652;23.364;2023-12-14T07:32:25;29.45;;;14.65;;
33190;SDS011;19554;42.652;23.364;2023-12-14T07:34:51;39.30;;;19.40;;
33190;SDS011;19554;42.652;23.364;2023-12-14T07:37:17;26.75;;;15.95;;
33190;SDS011;19554;42.652;23.364;2023-12-14T07:39:42;23.52;;;14.05;;
33190;SDS011;19554;42.652;23.364;2023-12-14T07:42:08;31.33;;;13.98;;
33190;SDS011;19554;42.652;23.364;2023-12-14T07:44:33;27.20;;;13.90;;
33190;SDS011;19554;42.652;23.364;2023-12-14T07:47:00;22.40;;;11.73;;
33190;SDS011;19554;42.652;23.364;2023-12-14T07:49:26;20.10;;;10.98;;
33190;SDS011;19554;42.652;23.364;2023-12-14T07:51:51;17.85;;;10.75;;
33190;SDS011;19554;42.652;23.364;2023-12-14T07:54:17;12.40;;;8.63;;
33190;SDS011;19554;42.652;23.364;2023-12-14T07:56:43;26.95;;;13.30;;
33190;SDS011;19554;42.652;23.364;2023-12-14T07:59:09;20.08;;;11.15;;
33190;SDS011;19554;42.652;23.364;2023-12-14T08:01:35;24.60;;;11.48;;
33190;SDS011;19554;42.652;23.364;2023-12-14T08:04:01;26.88;;;12.52;;
33190;SDS011;19554;42.652;23.364;2023-12-14T08:06:27;27.65;;;12.75;;
33190;SDS011;19554;42.652;23.364;2023-12-14T08:08:52;17.50;;;10.23;;
33190;SDS011;19554;42.652;23.364;2023-12-14T08:11:18;14.52;;;8.15;;
33190;SDS011;19554;42.652;23.364;2023-12-14T08:13:43;20.23;;;12.00;;
33190;SDS011;19554;42.652;23.364;2023-12-14T08:16:09;20.60;;;11.82;;
33190;SDS011;19554;42.652;23.364;2023-12-14T08:18:36;18.17;;;11.10;;
33190;SDS011;19554;42.652;23.364;2023-12-14T08:21:02;27.25;;;12.48;;
33190;SDS011;19554;42.652;23.364;2023-12-14T08:23:28;21.98;;;11.57;;
33190;SDS011;19554;42.652;23.364;2023-12-14T08:25:55;19.60;;;10.90;;
33190;SDS011;19554;42.652;23.364;2023-12-14T08:28:24;19.00;;;11.35;;
33190;SDS011;19554;42.652;23.364;2023-12-14T08:30:50;19.55;;;9.70;;
33190;SDS011;19554;42.652;23.364;2023-12-14T08:33:16;16.00;;;9.80;;
33190;SDS011;19554;42.652;23.364;2023-12-14T08:35:42;21.33;;;10.40;;
33190;SDS011;19554;42.652;23.364;2023-12-14T08:38:08;15.55;;;8.80;;
33190;SDS011;19554;42.652;23.364;2023-12-14T08:40:34;18.17;;;8.43;;
33190;SDS011;19554;42.652;23.364;2023-12-14T08:43:00;18.15;;;9.77;;
33190;SDS011;19554;42.652;23.364;2023-12-14T08:45:25;17.85;;;9.95;;
33190;SDS011;19554;42.652;23.364;2023-12-14T08:47:51;26.20;;;9.68;;
33190;SDS011;19554;42.652;23.364;2023-12-14T08:50:16;14.88;;;9.32;;
33190;SDS011;19554;42.652;23.364;2023-12-14T08:52:42;19.67;;;9.45;;
33190;SDS011;19554;42.652;23.364;2023-12-14T08:55:08;15.68;;;8.68;;
33190;SDS011;19554;42.652;23.364;2023-12-14T08:57:34;14.90;;;8.95;;
33190;SDS011;19554;42.652;23.364;2023-12-14T09:00:00;24.50;;;13.10;;
33190;SDS011;19554;42.652;23.364;2023-12-14T09:02:26;19.60;;;9.85;;
33190;SDS011;19554;42.652;23.364;2023-12-14T09:04:51;20.17;;;10.32;;
33190;SDS011;19554;42.652;23.364;2023-12-14T09:07:17;14.70;;;9.95;;
33190;SDS011;19554;42.652;23.364;2023-12-14T09:09:42;16.63;;;8.00;;
33190;SDS011;19554;42.652;23.364;2023-12-14T09:12:08;16.75;;;7.75;;
33190;SDS011;19554;42.652;23.364;2023-12-14T09:14:34;13.88;;;8.10;;
33190;SDS011;19554;42.652;23.364;2023-12-14T09:17:00;17.15;;;8.63;;
33190;SDS011;19554;42.652;23.364;2023-12-14T09:19:25;16.40;;;7.90;;
33190;SDS011;19554;42.652;23.364;2023-12-14T09:21:51;13.82;;;7.25;;
33190;SDS011;19554;42.652;23.364;2023-12-14T09:24:16;15.43;;;7.80;;
33190;SDS011;19554;42.652;23.364;2023-12-14T09:26:43;22.83;;;7.65;;
33190;SDS011;19554;42.652;23.364;2023-12-14T09:29:09;26.65;;;8.20;;
33190;SDS011;19554;42.652;23.364;2023-12-14T09:31:34;17.45;;;7.40;;
33190;SDS011;19554;42.652;23.364;2023-12-14T09:34:00;14.25;;;6.93;;
33190;SDS011;19554;42.652;23.364;2023-12-14T09:36:26;15.63;;;8.93;;
33190;SDS011;19554;42.652;23.364;2023-12-14T09:38:51;14.07;;;8.65;;
33190;SDS011;19554;42.652;23.364;2023-12-14T09:41:16;14.52;;;7.88;;
33190;SDS011;19554;42.652;23.364;2023-12-14T09:43:42;18.40;;;7.45;;
33190;SDS011;19554;42.652;23.364;2023-12-14T09:46:08;18.40;;;8.07;;
33190;SDS011;19554;42.652;23.364;2023-12-14T09:48:35;18.00;;;8.10;;
33190;SDS011;19554;42.652;23.364;2023-12-14T09:51:00;15.85;;;7.68;;
33190;SDS011;19554;42.652;23.364;2023-12-14T09:53:26;18.05;;;7.93;;
33190;SDS011;19554;42.652;23.364;2023-12-14T09:55:51;14.95;;;8.23;;
33190;SDS011;19554;42.652;23.364;2023-12-14T09:58:17;12.80;;;7.40;;
33190;SDS011;19554;42.652;23.364;2023-12-14T10:00:42;24.88;;;9.13;;
33190;SDS011;19554;42.652;23.364;2023-12-14T10:03:21;19.27;;;8.60;;
33190;SDS011;19554;42.652;23.364;2023-12-14T10:05:51;22.05;;;7.78;;
33190;SDS011;19554;42.652;23.364;2023-12-14T10:08:17;27.67;;;8.38;;
33190;SDS011;19554;42.652;23.364;2023-12-14T10:10:44;15.75;;;6.57;;
33190;SDS011;19554;42.652;23.364;2023-12-14T10:13:11;21.17;;;7.75;;
33190;SDS011;19554;42.652;23.364;2023-12-14T10:15:44;17.33;;;7.25;;
33190;SDS011;19554;42.652;23.364;2023-12-14T10:18:12;15.57;;;6.95;;
33190;SDS011;19554;42.652;23.364;2023-12-14T10:20:46;32.35;;;11.68;;
33190;SDS011;19554;42.652;23.364;2023-12-14T10:23:12;21.55;;;8.85;;
33190;SDS011;19554;42.652;23.364;2023-12-14T10:25:38;20.40;;;8.80;;
33190;SDS011;19554;42.652;23.364;2023-12-14T10:28:03;16.88;;;7.97;;
33190;SDS011;19554;42.652;23.364;2023-12-14T10:30:29;24.38;;;8.95;;
33190;SDS011;19554;42.652;23.364;2023-12-14T10:32:55;19.50;;;8.00;;
33190;SDS011;19554;42.652;23.364;2023-12-14T10:35:21;14.50;;;7.32;;
33190;SDS011;19554;42.652;23.364;2023-12-14T10:37:49;14.27;;;7.93;;
33190;SDS011;19554;42.652;23.364;2023-12-14T10:40:16;20.10;;;7.72;;
33190;SDS011;19554;42.652;23.364;2023-12-14T10:42:42;18.38;;;7.93;;
33190;SDS011;19554;42.652;23.364;2023-12-14T10:45:12;17.38;;;7.50;;
33190;SDS011;19554;42.652;23.364;2023-12-14T10:47:44;16.75;;;7.72;;
33190;SDS011;19554;42.652;23.364;2023-12-14T10:50:11;17.88;;;7.60;;
33190;SDS011;19554;42.652;23.364;2023-12-14T10:52:40;17.58;;;7.85;;
33190;SDS011;19554;42.652;23.364;2023-12-14T10:55:08;17.90;;;8.50;;
33190;SDS011;19554;42.652;23.364;2023-12-14T10:57:40;21.27;;;9.50;;
33190;SDS011;19554;42.652;23.364;2023-12-14T11:00:06;21.38;;;9.48;;
33190;SDS011;19554;42.652;23.364;2023-12-14T11:02:39;20.25;;;10.60;;
33190;SDS011;19554;42.652;23.364;2023-12-14T11:05:07;22.10;;;10.43;;
33190;SDS011;19554;42.652;23.364;2023-12-14T11:07:46;21.00;;;10.18;;
33190;SDS011;19554;42.652;23.364;2023-12-14T11:10:15;22.30;;;9.90;;
33190;SDS011;19554;42.652;23.364;2023-12-14T11:13:17;21.88;;;10.10;;
33190;SDS011;19554;42.652;23.364;2023-12-14T11:15:40;14.88;;;8.15;;
33190;SDS011;19554;42.652;23.364;2023-12-14T11:23:15;10.60;;;6.90;;
33190;SDS011;19554;42.652;23.364;2023-12-14T11:25:42;13.40;;;5.45;;
33190;SDS011;19554;42.652;23.364;2023-12-14T11:28:08;9.57;;;4.85;;
33190;SDS011;19554;42.652;23.364;2023-12-14T11:30:35;7.78;;;5.00;;
33190;SDS011;19554;42.652;23.364;2023-12-14T11:33:02;16.05;;;4.22;;
33190;SDS011;19554;42.652;23.364;2023-12-14T11:35:28;11.13;;;5.22;;
33190;SDS011;19554;42.652;23.364;2023-12-14T11:37:53;14.68;;;4.20;;
33190;SDS011;19554;42.652;23.364;2023-12-14T11:40:22;7.53;;;3.15;;
33190;SDS011;19554;42.652;23.364;2023-12-14T11:43:03;6.50;;;3.33;;
33190;SDS011;19554;42.652;23.364;2023-12-14T11:45:36;7.20;;;3.22;;
33190;SDS011;19554;42.652;23.364;2023-12-14T11:48:06;4.07;;;2.70;;
33190;SDS011;19554;42.652;23.364;2023-12-14T11:50:33;6.03;;;3.10;;
33190;SDS011;19554;42.652;23.364;2023-12-14T11:53:03;3.97;;;1.85;;
33190;SDS011;19554;42.652;23.364;2023-12-14T11:55:30;8.65;;;1.83;;
33190;SDS011;19554;42.652;23.364;2023-12-14T11:57:56;7.40;;;2.10;;
33190;SDS011;19554;42.652;23.364;2023-12-14T12:00:25;4.20;;;2.25;;
33190;SDS011;19554;42.652;23.364;2023-12-14T12:03:15;5.45;;;2.00;;
33190;SDS011;19554;42.652;23.364;2023-12-14T12:05:42;3.63;;;1.77;;
33190;SDS011;19554;42.652;23.364;2023-12-14T12:08:10;3.63;;;1.33;;
33190;SDS011;19554;42.652;23.364;2023-12-14T12:10:39;3.97;;;1.25;;
33190;SDS011;19554;42.652;23.364;2023-12-14T12:13:16;3.35;;;1.40;;
33190;SDS011;19554;42.652;23.364;2023-12-14T12:15:43;3.42;;;1.42;;
33190;SDS011;19554;42.652;23.364;2023-12-14T12:18:10;2.65;;;1.15;;
33190;SDS011;19554;42.652;23.364;2023-12-14T12:20:37;3.90;;;1.67;;
33190;SDS011;19554;42.652;23.364;2023-12-14T12:23:03;4.47;;;1.27;;
33190;SDS011;19554;42.652;23.364;2023-12-14T12:25:29;3.53;;;1.25;;
33190;SDS011;19554;42.652;23.364;2023-12-14T12:27:57;1.90;;;1.23;;
33190;SDS011;19554;42.652;23.364;2023-12-14T12:30:23;4.22;;;1.27;;
33190;SDS011;19554;42.652;23.364;2023-12-14T12:32:49;3.03;;;1.17;;
33190;SDS011;19554;42.652;23.364;2023-12-14T12:35:21;6.30;;;1.90;;
33190;SDS011;19554;42.652;23.364;2023-12-14T12:37:47;6.03;;;1.20;;
33190;SDS011;19554;42.652;23.364;2023-12-14T12:42:45;13.63;;;1.83;;
33190;SDS011;19554;42.652;23.364;2023-12-14T12:45:13;7.13;;;1.63;;
33190;SDS011;19554;42.652;23.364;2023-12-14T12:47:39;6.43;;;1.80;;
33190;SDS011;19554;42.652;23.364;2023-12-14T12:50:04;6.57;;;1.27;;
33190;SDS011;19554;42.652;23.364;2023-12-14T12:52:31;9.48;;;1.65;;
33190;SDS011;19554;42.652;23.364;2023-12-14T12:54:56;8.13;;;1.63;;
33190;SDS011;19554;42.652;23.364;2023-12-14T12:57:22;0.90;;;0.73;;
33190;SDS011;19554;42.652;23.364;2023-12-14T12:59:47;2.40;;;0.70;;
33190;SDS011;19554;42.652;23.364;2023-12-14T13:02:12;3.80;;;1.35;;
33190;SDS011;19554;42.652;23.364;2023-12-14T13:04:38;5.65;;;1.13;;
33190;SDS011;19554;42.652;23.364;2023-12-14T13:07:03;3.85;;;1.75;;
33190;SDS011;19554;42.652;23.364;2023-12-14T13:09:29;3.17;;;1.40;;
33190;SDS011;19554;42.652;23.364;2023-12-14T13:11:55;5.03;;;1.10;;
33190;SDS011;19554;42.652;23.364;2023-12-14T13:14:20;5.70;;;1.17;;
33190;SDS011;19554;42.652;23.364;2023-12-14T13:16:46;3.10;;;1.23;;
33190;SDS011;19554;42.652;23.364;2023-12-14T13:19:13;1.50;;;1.10;;
33190;SDS011;19554;42.652;23.364;2023-12-14T13:21:38;2.53;;;1.30;;
33190;SDS011;19554;42.652;23.364;2023-12-14T13:24:04;5.10;;;1.50;;
33190;SDS011;19554;42.652;23.364;2023-12-14T13:26:29;3.05;;;1.30;;
33190;SDS011;19554;42.652;23.364;2023-12-14T13:28:55;4.75;;;1.10;;
33190;SDS011;19554;42.652;23.364;2023-12-14T13:31:21;2.15;;;1.33;;
33190;SDS011;19554;42.652;23.364;2023-12-14T13:33:47;3.53;;;0.95;;
33190;SDS011;19554;42.652;23.364;2023-12-14T13:36:13;4.97;;;0.88;;
33190;SDS011;19554;42.652;23.364;2023-12-14T13:38:40;3.42;;;1.05;;
33190;SDS011;19554;42.652;23.364;2023-12-14T13:41:06;2.85;;;1.20;;
33190;SDS011;19554;42.652;23.364;2023-12-14T13:43:35;4.43;;;1.08;;
33190;SDS011;19554;42.652;23.364;2023-12-14T13:46:01;2.13;;;1.17;;
33190;SDS011;19554;42.652;23.364;2023-12-14T13:48:27;1.55;;;1.23;;
33190;SDS011;19554;42.652;23.364;2023-12-14T13:50:53;6.38;;;2.25;;
33190;SDS011;19554;42.652;23.364;2023-12-14T13:53:20;7.35;;;1.60;;
33190;SDS011;19554;42.652;23.364;2023-12-14T13:55:46;5.18;;;1.30;;
33190;SDS011;19554;42.652;23.364;2023-12-14T13:58:12;6.30;;;1.50;;
33190;SDS011;19554;42.652;23.364;2023-12-14T14:00:38;2.28;;;1.13;;
33190;SDS011;19554;42.652;23.364;2023-12-14T14:03:03;6.00;;;1.23;;
33190;SDS011;19554;42.652;23.364;2023-12-14T14:05:30;7.28;;;1.50;;
33190;SDS011;19554;42.652;23.364;2023-12-14T14:07:56;2.00;;;1.60;;
33190;SDS011;19554;42.652;23.364;2023-12-14T14:10:22;4.28;;;1.50;;
33190;SDS011;19554;42.652;23.364;2023-12-14T14:12:47;6.32;;;1.90;;
33190;SDS011;19554;42.652;23.364;2023-12-14T14:15:14;1.90;;;1.30;;
33190;SDS011;19554;42.652;23.364;2023-12-14T14:17:39;6.05;;;1.58;;